Time;durP1;ratioP1;P1;durP2;ratioP2;P2;SDS_P1;SDS_P2;PMS_P1;PMS_P2;Temp;Humidity;BMP_temperature;BMP_pressure;BME280_temperature;BME280_humidity;BME280_pressure;Samples;Min_cycle;Max_cycle;Signal;HPM_P1;HPM_P2
2023/12/26 00:00:18;;;;;;;23.30;8.10;;;;;;;3.51;73.73;99779.98;105361;1285;66232;-57
2023/12/26 00:03:06;;;;;;;24.00;10.00;;;;;;;3.45;74.60;99768.73;105453;1285;73953;-58
2023/12/26 00:05:52;;;;;;;20.80;8.90;;;;;;;3.42;73.93;99771.64;105424;1285;61416;-57
2023/12/26 00:08:39;;;;;;;20.80;7.40;;;;;;;3.47;74.20;99772.65;105410;1286;61193;-57
2023/12/26 00:11:25;;;;;;;27.10;7.40;;;;;;;3.53;74.17;99775.03;105370;1285;73179;-57
2023/12/26 00:14:16;;;;;;;;;;;;;;;3.59;76.66;99765.32;105461;1285;67270;-56
2023/12/26 00:17:03;;;;;;;23.50;8.00;;;;;;;3.69;75.08;99770.21;105355;1288;70723;-56
2023/12/26 00:19:49;;;;;;;26.60;8.40;;;;;;;3.79;74.69;99773.77;105381;1284;61155;-54
2023/12/26 00:22:36;;;;;;;;;;;;;;;3.87;74.68;99773.24;105417;1286;61130;-58
2023/12/26 00:25:22;;;;;;;20.60;7.20;;;;;;;3.96;74.51;99775.61;105374;1284;73640;-58
2023/12/26 00:28:09;;;;;;;21.40;6.70;;;;;;;4.09;76.25;99769.61;105364;1286;67237;-58
2023/12/26 00:30:55;;;;;;;19.70;5.60;;;;;;;4.19;77.40;99759.31;105435;1285;73933;-58
2023/12/26 00:33:41;;;;;;;17.30;6.80;;;;;;;4.29;78.28;99752.79;105390;1286;61224;-57
2023/12/26 00:36:33;;;;;;;14.00;6.30;;;;;;;4.37;78.27;99747.46;105730;1285;61024;-57
2023/12/26 00:39:19;;;;;;;15.00;5.30;;;;;;;4.45;76.85;99740.60;105731;1285;74582;-56
2023/12/26 00:42:05;;;;;;;15.60;6.10;;;;;;;4.54;77.58;99735.27;105456;1285;69691;-58
2023/12/26 00:44:51;;;;;;;;;;;;;;;4.63;78.28;99730.27;105392;1284;217787;-58
2023/12/26 00:47:37;;;;;;;16.20;6.90;;;;;;;4.72;79.66;99724.88;105580;1285;61633;-57
2023/12/26 00:50:24;;;;;;;20.50;6.70;;;;;;;4.79;78.85;99725.85;105469;1284;61225;-58
2023/12/26 00:53:10;;;;;;;15.30;6.30;;;;;;;4.85;77.08;99727.86;105359;1284;73399;-58
2023/12/26 00:55:57;;;;;;;16.00;6.70;;;;;;;4.90;78.06;99715.70;105456;1284;67225;-58
2023/12/26 00:58:44;;;;;;;;;;;;;;;4.95;79.90;99711.06;105459;1286;74499;-58
2023/12/26 01:01:30;;;;;;;14.70;5.90;;;;;;;4.99;79.23;99713.42;105460;1285;61736;-55
2023/12/26 01:04:17;;;;;;;11.50;5.90;;;;;;;5.04;77.82;99711.33;105479;1285;62846;-55
2023/12/26 01:07:05;;;;;;;18.80;6.60;;;;;;;5.08;78.59;99707.02;105496;1284;75058;-57
2023/12/26 01:09:51;;;;;;;19.10;7.00;;;;;;;5.12;79.93;99699.98;105690;1284;68567;-57
2023/12/26 01:12:38;;;;;;;13.40;6.80;;;;;;;5.16;78.23;99692.44;105446;1285;71605;-56
2023/12/26 01:15:24;;;;;;;12.30;7.30;;;;;;;5.22;79.58;99690.14;105485;1285;61243;-58
2023/12/26 01:18:10;;;;;;;10.00;6.10;;;;;;;5.27;78.94;99692.48;105484;1285;61699;-54
2023/12/26 01:20:57;;;;;;;11.20;6.70;;;;;;;5.36;79.48;99694.27;105505;1285;75665;-55
2023/12/26 01:23:43;;;;;;;;;;;;;;;5.42;78.68;99687.72;105432;1285;69339;-56
2023/12/26 01:26:30;;;;;;;11.20;5.40;;;;;;;5.45;80.09;99680.69;105436;1285;71264;-55
2023/12/26 01:29:17;;;;;;;16.50;6.20;;;;;;;5.49;80.08;99671.59;105457;1286;61273;-58
2023/12/26 01:32:03;;;;;;;10.10;5.90;;;;;;;5.53;80.56;99663.01;105513;1285;61180;-58
2023/12/26 01:34:50;;;;;;;10.40;4.10;;;;;;;5.56;80.05;99660.23;105418;1285;73171;-55
2023/12/26 01:37:36;;;;;;;7.30;3.80;;;;;;;5.62;82.87;99664.09;105436;1284;67287;-56
2023/12/26 01:40:22;;;;;;;10.50;4.90;;;;;;;5.67;82.25;99658.91;105452;1286;72907;-56
2023/12/26 01:43:09;;;;;;;16.20;5.40;;;;;;;5.73;81.84;99657.45;105334;1285;61162;-57
2023/12/26 01:45:57;;;;;;;;;;;;;;;5.76;83.63;99650.39;105400;1285;61139;-58
2023/12/26 01:48:47;;;;;;;7.40;4.30;;;;;;;5.79;81.62;99648.66;105445;1285;76652;-55
2023/12/26 01:51:34;;;;;;;7.10;4.00;;;;;;;5.79;83.25;99638.39;105489;1285;68324;-57
2023/12/26 01:54:27;;;;;;;10.70;4.70;;;;;;;5.82;81.75;99630.66;105507;1284;71388;-56
2023/12/26 01:57:13;;;;;;;10.20;4.90;;;;;;;5.82;82.81;99629.45;105448;1284;63331;-58
2023/12/26 02:00:01;;;;;;;8.00;4.50;;;;;;;5.84;83.81;99620.20;105515;1285;61335;-58
2023/12/26 02:02:52;;;;;;;5.70;4.40;;;;;;;5.89;83.26;99613.48;105623;1285;74637;-56
2023/12/26 02:05:40;;;;;;;8.60;4.60;;;;;;;5.92;81.50;99613.62;105374;1285;70016;-56
2023/12/26 02:08:27;;;;;;;7.30;4.70;;;;;;;6.00;85.37;99611.14;105275;1286;71308;-58
2023/12/26 02:11:13;;;;;;;5.90;4.70;;;;;;;6.03;85.10;99608.19;105392;1285;61137;-56
2023/12/26 02:13:59;;;;;;;8.20;5.00;;;;;;;6.08;85.42;99608.63;105428;1285;61163;-58
2023/12/26 02:16:47;;;;;;;8.60;5.30;;;;;;;6.14;87.48;99603.75;105489;1285;73215;-58
2023/12/26 02:19:41;;;;;;;7.00;5.20;;;;;;;6.19;86.58;99598.71;105490;1285;70739;-57
2023/12/26 02:22:29;;;;;;;7.40;5.50;;;;;;;6.24;84.47;99590.07;106247;1285;71400;-58
2023/12/26 02:25:16;;;;;;;8.10;5.30;;;;;;;6.30;86.14;99591.84;105465;1284;61262;-56
2023/12/26 02:28:06;;;;;;;7.30;5.40;;;;;;;6.37;86.50;99582.33;105431;1285;61087;-56
2023/12/26 02:30:52;;;;;;;7.90;5.60;;;;;;;6.46;85.05;99577.58;105543;1285;74984;-58
2023/12/26 02:33:39;;;;;;;8.10;5.00;;;;;;;6.53;87.53;99568.90;105445;1285;71242;-58
2023/12/26 02:36:25;;;;;;;9.70;5.50;;;;;;;6.59;86.66;99560.56;105666;1286;72277;-58
2023/12/26 02:39:11;;;;;;;;;;;;;;;6.67;86.31;99556.85;106072;1285;59234;-55
2023/12/26 02:41:58;;;;;;;8.60;4.20;;;;;;;6.74;86.21;99549.19;105487;1284;61173;-56
2023/12/26 02:44:44;;;;;;;5.50;4.50;;;;;;;6.81;87.07;99538.08;105522;1285;73442;-57
2023/12/26 02:47:30;;;;;;;5.80;4.70;;;;;;;6.88;87.48;99540.19;105510;1285;67114;-58
2023/12/26 02:50:16;;;;;;;7.40;4.90;;;;;;;6.95;88.27;99531.48;105479;1288;71165;-58
2023/12/26 02:53:03;;;;;;;9.40;4.90;;;;;;;7.00;89.78;99532.77;105351;1285;61736;-56
2023/12/26 02:55:53;;;;;;;10.50;5.80;;;;;;;7.05;90.19;99529.77;105891;1284;61264;-58
2023/12/26 02:58:40;;;;;;;9.00;6.00;;;;;;;7.10;89.14;99519.71;105409;1285;74253;-58
2023/12/26 03:01:26;;;;;;;6.20;4.90;;;;;;;7.17;90.72;99512.56;105476;1285;70666;-58
2023/12/26 03:04:13;;;;;;;5.90;5.10;;;;;;;7.24;90.16;99505.56;105419;1284;72150;-58
2023/12/26 03:06:59;;;;;;;;;;;;;;;7.26;89.42;99499.33;105495;1286;61152;-55
2023/12/26 03:09:45;;;;;;;;;;;;;;;7.33;93.30;99499.70;105647;1286;61374;-56
2023/12/26 03:12:51;;;;;;;5.90;5.10;;;;;;;7.42;89.85;99496.24;47487;1285;20074743;-58
2023/12/26 03:15:38;;;;;;;6.80;6.00;;;;;;;7.41;89.95;99489.93;105521;1285;75035;-58
2023/12/26 03:18:24;;;;;;;6.00;4.90;;;;;;;7.40;91.23;99480.16;105495;1286;67104;-59
2023/12/26 03:21:10;;;;;;;6.30;5.40;;;;;;;7.45;89.72;99473.55;105465;1286;74016;-58
2023/12/26 03:23:56;;;;;;;5.30;4.80;;;;;;;7.47;91.51;99472.83;105465;1285;61419;-58
2023/12/26 03:26:43;;;;;;;5.60;5.00;;;;;;;7.48;91.96;99469.71;105436;1285;61147;-58
2023/12/26 03:29:29;;;;;;;6.50;4.90;;;;;;;7.47;90.32;99461.67;105425;1284;76471;-58
2023/12/26 03:32:17;;;;;;;5.90;5.00;;;;;;;7.50;92.82;99457.67;105403;1285;67291;-56
2023/12/26 03:35:04;;;;;;;5.20;4.70;;;;;;;7.51;91.21;99454.55;105398;1284;72098;-57
2023/12/26 03:37:51;;;;;;;5.10;4.60;;;;;;;7.51;93.10;99452.50;105451;1285;61263;-58
2023/12/26 03:40:37;;;;;;;5.80;4.80;;;;;;;7.53;89.96;99447.14;105427;1285;61152;-57
2023/12/26 03:43:23;;;;;;;13.50;12.30;;;;;;;7.56;94.93;99446.73;105403;1288;73082;-56
2023/12/26 03:46:09;;;;;;;6.50;4.20;;;;;;;7.56;95.44;99442.96;105450;1285;67849;-58
2023/12/26 03:48:56;;;;;;;4.20;3.80;;;;;;;7.57;94.57;99440.19;105420;1285;74051;-57
2023/12/26 03:51:44;;;;;;;5.50;4.60;;;;;;;7.58;92.62;99428.51;105454;1285;61018;-58
2023/12/26 03:54:31;;;;;;;6.50;5.00;;;;;;;7.59;93.27;99423.52;105501;1285;61220;-58
2023/12/26 03:57:18;;;;;;;5.50;4.50;;;;;;;7.60;92.91;99421.59;105259;1285;73219;-57
2023/12/26 04:00:05;;;;;;;5.50;4.20;;;;;;;7.64;93.32;99417.73;105337;1285;70026;-57
2023/12/26 04:02:51;;;;;;;4.80;4.40;;;;;;;7.64;94.89;99417.38;105678;1288;72338;-58
2023/12/26 04:05:37;;;;;;;4.60;4.10;;;;;;;7.62;94.98;99412.09;105443;1286;61240;-58
2023/12/26 04:08:23;;;;;;;4.50;4.10;;;;;;;7.65;92.00;99408.77;105432;1285;61680;-58
2023/12/26 04:11:13;;;;;;;6.90;4.90;;;;;;;7.70;92.31;99405.75;105366;1284;76036;-59
2023/12/26 04:13:59;;;;;;;4.50;4.10;;;;;;;7.70;93.90;99399.92;105426;1284;67167;-58
2023/12/26 04:16:45;;;;;;;5.10;4.60;;;;;;;7.69;96.15;99394.13;105373;1286;73946;-57
2023/12/26 04:19:31;;;;;;;5.00;4.50;;;;;;;7.68;96.18;99390.89;105420;1285;61264;-57
2023/12/26 04:22:18;;;;;;;4.30;3.90;;;;;;;7.68;93.89;99381.80;105318;1285;61732;-55
2023/12/26 04:25:06;;;;;;;5.20;4.70;;;;;;;7.68;93.38;99375.80;105434;1285;73158;-57
2023/12/26 04:27:53;;;;;;;4.90;4.40;;;;;;;7.70;95.44;99369.58;105948;1285;67233;-57
2023/12/26 04:30:40;;;;;;;4.60;4.20;;;;;;;7.70;96.58;99365.98;105398;1285;76028;-57
2023/12/26 04:33:26;;;;;;;5.20;4.50;;;;;;;7.71;95.49;99357.52;105408;1285;60005;-58
2023/12/26 04:36:13;;;;;;;4.40;4.10;;;;;;;7.74;94.83;99354.21;105462;1285;61119;-58
2023/12/26 04:38:59;;;;;;;4.40;4.00;;;;;;;7.76;94.96;99353.11;105347;1285;73297;-56
2023/12/26 04:41:48;;;;;;;;;;;;;;;7.75;96.39;99348.02;105490;1284;69196;-58
2023/12/26 04:44:35;;;;;;;3.10;2.90;;;;;;;7.74;96.03;99348.88;105440;1284;71238;-57
2023/12/26 04:47:21;;;;;;;;;;;;;;;7.79;95.33;99347.39;106073;1285;61232;-56
2023/12/26 04:50:07;;;;;;;;;;;;;;;7.79;94.81;99336.40;105476;1284;61514;-57
2023/12/26 04:52:53;;;;;;;3.70;2.90;;;;;;;7.79;97.54;99332.97;105750;1284;75817;-58
2023/12/26 04:55:40;;;;;;;2.80;2.60;;;;;;;7.80;98.32;99328.33;105438;1285;68927;-59
2023/12/26 04:58:26;;;;;;;2.90;2.70;;;;;;;7.82;98.60;99322.59;105443;1285;71280;-56
2023/12/26 05:01:16;;;;;;;3.70;2.60;;;;;;;7.83;98.01;99322.05;105419;1285;61337;-57
2023/12/26 05:04:03;;;;;;;1.80;1.70;;;;;;;7.83;97.65;99319.81;105404;1285;61269;-59
2023/12/26 05:06:50;;;;;;;1.90;1.80;;;;;;;7.83;96.84;99315.17;105459;1285;73418;-57
2023/12/26 05:09:36;;;;;;;1.90;1.60;;;;;;;7.83;99.74;99313.98;105528;1284;69008;-55
2023/12/26 05:12:22;;;;;;;2.00;1.30;;;;;;;7.84;98.71;99316.86;105354;1290;71249;-55
2023/12/26 05:15:09;;;;;;;2.90;1.80;;;;;;;7.84;97.93;99317.38;105356;1285;61141;-57
2023/12/26 05:17:55;;;;;;;1.30;1.10;;;;;;;7.85;97.65;99315.64;105471;1284;63358;-58
2023/12/26 05:20:41;;;;;;;1.30;1.20;;;;;;;7.86;97.39;99314.06;105439;1284;73328;-58
2023/12/26 05:23:28;;;;;;;1.40;1.20;;;;;;;7.84;97.92;99311.53;105455;1285;67351;-58
2023/12/26 05:26:15;;;;;;;1.10;0.80;;;;;;;7.84;98.48;99312.06;105409;1285;71386;-56
2023/12/26 05:29:01;;;;;;;2.30;1.00;;;;;;;7.84;97.31;99307.23;105462;1285;61173;-58
2023/12/26 05:31:48;;;;;;;0.80;0.80;;;;;;;7.84;96.71;99305.02;105394;1286;61170;-57
2023/12/26 05:34:34;;;;;;;0.70;0.70;;;;;;;7.85;96.71;99303.45;105402;1288;73178;-58
2023/12/26 05:37:22;;;;;;;1.00;0.90;;;;;;;7.86;96.57;99299.83;105429;1285;67444;-56
2023/12/26 05:40:08;;;;;;;0.90;0.90;;;;;;;7.88;95.68;99292.74;106220;1285;71208;-57
2023/12/26 05:42:55;;;;;;;0.70;0.70;;;;;;;7.88;95.56;99289.49;105419;1288;61270;-58
2023/12/26 05:45:41;;;;;;;1.80;0.60;;;;;;;7.88;98.30;99295.82;105540;1284;61251;-56
2023/12/26 05:48:27;;;;;;;0.90;0.90;;;;;;;7.88;98.46;99287.44;105394;1285;73766;-57
2023/12/26 05:51:13;;;;;;;1.10;1.10;;;;;;;7.89;96.56;99286.36;105481;1285;67213;-58
2023/12/26 05:54:00;;;;;;;1.70;1.60;;;;;;;7.90;98.89;99286.02;105392;1285;72419;-57
2023/12/26 05:56:46;;;;;;;1.50;1.40;;;;;;;7.91;98.42;99293.33;105435;1285;61180;-55
2023/12/26 05:59:32;;;;;;;1.80;1.70;;;;;;;7.92;97.25;99289.88;105484;1286;61135;-58
2023/12/26 06:02:19;;;;;;;1.80;1.70;;;;;;;7.94;96.50;99287.44;105463;1285;73941;-58
2023/12/26 06:05:06;;;;;;;;;;;;;;;7.96;97.63;99294.24;105506;1285;67381;-57
2023/12/26 06:07:52;;;;;;;2.10;2.00;;;;;;;7.96;97.66;99293.04;105438;1285;73043;-57
2023/12/26 06:10:39;;;;;;;2.10;2.00;;;;;;;7.95;99.44;99299.23;105458;1284;59287;-55
2023/12/26 06:13:26;;;;;;;2.50;2.30;;;;;;;7.97;97.98;99298.66;105456;1285;61163;-58
2023/12/26 06:16:12;;;;;;;2.30;2.10;;;;;;;8.00;97.62;99306.67;105407;1285;73316;-56
2023/12/26 06:18:59;;;;;;;;;;;;;;;8.02;98.48;99303.20;105436;1286;66612;-59
2023/12/26 06:21:45;;;;;;;;;;;;;;;8.02;99.90;99313.65;105467;1285;71152;-58
2023/12/26 06:24:31;;;;;;;;;;;;;;;8.06;99.52;99318.52;105496;1285;61124;-58
2023/12/26 06:27:17;;;;;;;;;;;;;;;8.07;99.10;99321.23;105456;1285;61268;-57
2023/12/26 06:30:04;;;;;;;1.10;1.10;;;;;;;8.13;99.08;99324.35;105425;1285;73294;-56
2023/12/26 06:32:51;;;;;;;1.20;1.10;;;;;;;8.15;98.93;99331.51;106426;1285;68474;-58
2023/12/26 06:35:38;;;;;;;139.60;53.80;;;;;;;8.16;98.89;99331.65;105447;1285;71181;-57
2023/12/26 06:38:25;;;;;;;1.50;1.30;;;;;;;8.21;99.55;99327.05;105411;1285;61086;-56
2023/12/26 06:41:11;;;;;;;315.30;89.00;;;;;;;8.21;99.46;99332.87;105397;1285;59311;-57
2023/12/26 06:43:57;;;;;;;0.90;0.90;;;;;;;8.24;99.64;99339.16;105426;1286;75863;-57
2023/12/26 06:46:44;;;;;;;0.70;0.70;;;;;;;8.20;99.07;99344.76;105450;1285;71374;-58
2023/12/26 06:49:30;;;;;;;0.70;0.70;;;;;;;8.23;99.57;99349.82;105408;1288;73995;-55
2023/12/26 06:52:16;;;;;;;1.00;0.90;;;;;;;8.24;99.86;99357.02;105322;1285;61080;-57
2023/12/26 06:55:03;;;;;;;1.00;0.90;;;;;;;8.25;99.66;99359.04;105456;1285;61153;-56
2023/12/26 06:57:49;;;;;;;;;;;;;;;8.23;99.69;99356.70;105466;1285;73178;-56
2023/12/26 07:00:35;;;;;;;2.70;1.90;;;;;;;8.24;99.82;99359.58;105502;1285;67267;-57
2023/12/26 07:03:21;;;;;;;1.70;1.60;;;;;;;8.22;99.71;99356.55;105407;1285;71636;-56
2023/12/26 07:06:08;;;;;;;1.70;1.60;;;;;;;8.23;99.92;99358.58;105446;1288;61385;-56
2023/12/26 07:08:54;;;;;;;1.70;1.60;;;;;;;8.23;99.98;99359.95;105425;1285;61026;-56
2023/12/26 07:11:40;;;;;;;1.60;1.20;;;;;;;8.22;99.87;99357.40;105438;1285;76036;-57
2023/12/26 07:14:35;;;;;;;1.60;1.20;;;;;;;8.24;100.00;99365.24;90050;1288;10003420;-57
2023/12/26 07:17:41;;;;;;;1.20;0.80;;;;;;;8.24;100.00;99387.05;69260;1286;20058644;-54
2023/12/26 07:20:28;;;;;;;4.30;0.60;;;;;;;8.24;99.97;99388.41;105454;1285;61288;-57
2023/12/26 07:23:14;;;;;;;0.40;0.40;;;;;;;8.23;99.94;99368.88;105485;1284;61106;-56
2023/12/26 07:26:00;;;;;;;0.30;0.30;;;;;;;8.24;99.93;99356.67;105457;1284;75200;-57
2023/12/26 07:28:47;;;;;;;0.30;0.30;;;;;;;8.26;99.98;99357.98;105452;1284;67268;-53
2023/12/26 07:31:33;;;;;;;0.30;0.30;;;;;;;8.25;100.00;99363.50;105430;1286;74933;-56
2023/12/26 07:34:20;;;;;;;0.40;0.40;;;;;;;8.26;99.96;99372.59;105425;1285;61774;-56
2023/12/26 07:37:07;;;;;;;;;;;;;;;8.26;99.91;99379.80;105466;1285;61184;-57
2023/12/26 07:39:53;;;;;;;1.10;1.10;;;;;;;8.28;100.00;99383.84;105441;1288;75445;-58
2023/12/26 07:42:39;;;;;;;0.60;0.40;;;;;;;8.30;100.00;99385.85;105372;1288;70072;-57
2023/12/26 07:45:26;;;;;;;0.80;0.40;;;;;;;8.29;99.96;99381.58;105435;1288;71189;-58
2023/12/26 07:48:12;;;;;;;0.30;0.30;;;;;;;8.31;100.00;99388.41;105375;1285;61263;-55
2023/12/26 07:50:58;;;;;;;0.30;0.30;;;;;;;8.33;99.87;99400.56;105408;1288;61782;-54
2023/12/26 07:53:46;;;;;;;0.40;0.30;;;;;;;8.32;99.93;99395.76;105426;1285;73366;-57
2023/12/26 07:56:32;;;;;;;0.40;0.30;;;;;;;8.33;99.65;99398.31;105427;1285;67280;-56
2023/12/26 07:59:18;;;;;;;0.80;0.30;;;;;;;8.35;99.59;99397.42;105397;1287;71213;-58
2023/12/26 08:02:05;;;;;;;1.20;0.80;;;;;;;8.39;99.96;99402.30;105364;1285;61350;-55
2023/12/26 08:04:51;;;;;;;0.70;0.60;;;;;;;8.43;99.99;99413.70;106745;1285;58932;-58
2023/12/26 08:07:40;;;;;;;0.70;0.70;;;;;;;8.43;99.97;99412.98;106737;1286;73235;-58
2023/12/26 08:10:27;;;;;;;0.70;0.50;;;;;;;8.46;100.00;99422.02;106658;1285;67270;-59
2023/12/26 08:13:16;;;;;;;0.70;0.70;;;;;;;8.50;100.00;99428.79;106558;1286;71441;-59
2023/12/26 08:16:32;;;;;;;0.70;0.50;;;;;;;8.52;100.00;99436.29;47640;1285;20063508;-59
2023/12/26 08:19:54;;;;;;;0.60;0.60;;;;;;;8.55;100.00;99449.41;106352;1285;305782;-59
2023/12/26 08:22:50;;;;;;;1.20;0.80;;;;;;;8.58;100.00;99464.45;106320;1288;58894;-59
2023/12/26 08:25:48;;;;;;;;;;;;;;;;;;;;;
2023/12/26 08:29:14;;;;;;;;;;;;;;;;;;;;;
2023/12/26 08:32:01;;;;;;;0.40;0.40;;;;;;;8.67;100.00;99455.48;104214;1294;71209;-59
2023/12/26 08:34:47;;;;;;;0.60;0.40;;;;;;;8.69;100.00;99462.63;104451;1294;61167;-57
2023/12/26 08:37:34;;;;;;;0.40;0.30;;;;;;;8.73;100.00;99475.77;104482;1294;61120;-59
2023/12/26 08:40:22;;;;;;;;;;;;;;;8.73;100.00;99488.14;104542;1298;76060;-58
2023/12/26 08:43:08;;;;;;;1.30;0.70;;;;;;;8.72;100.00;99482.99;104246;1294;69157;-59
2023/12/26 08:45:54;;;;;;;1.80;0.40;;;;;;;8.73;100.00;99489.33;104411;1297;73934;-54
2023/12/26 08:48:41;;;;;;;0.60;0.50;;;;;;;8.72;100.00;99502.25;104496;1294;61231;-57
2023/12/26 08:51:28;;;;;;;4.70;0.60;;;;;;;8.70;100.00;99498.68;104460;1294;61162;-55
2023/12/26 08:54:14;;;;;;;0.50;0.40;;;;;;;8.69;100.00;99491.32;104512;1294;73448;-57
2023/12/26 08:57:01;;;;;;;2.00;0.50;;;;;;;8.69;100.00;99483.59;104530;1294;70205;-54
2023/12/26 08:59:47;;;;;;;0.40;0.40;;;;;;;8.70;100.00;99494.23;104456;1294;74029;-55
2023/12/26 09:02:33;;;;;;;0.40;0.40;;;;;;;8.68;100.00;99508.70;104564;1294;61172;-53
2023/12/26 09:05:20;;;;;;;2.20;0.50;;;;;;;8.65;100.00;99515.48;104549;1296;61206;-56
2023/12/26 09:08:06;;;;;;;0.30;0.30;;;;;;;8.60;100.00;99516.98;104554;1285;72325;-55
2023/12/26 09:10:53;;;;;;;142.60;43.70;;;;;;;8.56;100.00;99531.51;105265;1285;67174;-55
2023/12/26 09:13:40;;;;;;;1.20;0.50;;;;;;;8.59;100.00;99539.17;105268;1289;72236;-57
2023/12/26 09:16:26;;;;;;;1.60;0.40;;;;;;;8.58;100.00;99537.47;105322;1285;61262;-57
2023/12/26 09:19:12;;;;;;;1.10;0.90;;;;;;;8.59;100.00;99541.21;105284;1285;63148;-56
2023/12/26 09:21:59;;;;;;;0.90;0.90;;;;;;;8.60;100.00;99549.08;105216;1287;73161;-54
2023/12/26 09:24:45;;;;;;;0.70;0.70;;;;;;;8.62;99.99;99553.02;105312;1290;67446;-56
2023/12/26 09:27:31;;;;;;;;;;;;;;;8.67;100.00;99553.56;105262;1285;71184;-57
2023/12/26 09:30:28;;;;;;;2.20;0.70;;;;;;;8.76;100.00;99555.23;105054;1285;10002047;-57
2023/12/26 09:33:55;;;;;;;0.80;0.60;;;;;;;8.81;99.89;99558.88;55008;1286;20072712;-58
2023/12/26 09:37:03;;;;;;;;;;;;;;;;;;;;;
2023/12/26 09:40:20;;;;;;;;;;;;;;;;;;;;;
2023/12/26 09:43:46;;;;;;;;;;;;;;;;;;;;;
2023/12/26 09:47:05;;;;;;;0.50;0.50;;;;;;;8.97;98.79;99567.55;105326;1300;59526;-57
2023/12/26 09:50:02;;;;;;;16.50;3.70;;;;;;;8.92;98.36;99573.70;105173;1304;73409;-56
2023/12/26 09:56:58;;;;;;;;;;;;;;;;;;;;;
2023/12/26 10:00:09;;;;;;;3.10;2.40;;;;;;;9.18;98.39;99582.27;104139;1312;59315;-57
2023/12/26 10:02:56;;;;;;;9.20;2.00;;;;;;;9.36;98.43;99591.08;104269;1311;59721;-57
2023/12/26 10:06:24;;;;;;;2.50;2.00;;;;;;;9.39;97.62;99593.38;104281;1310;73476;-56
2023/12/26 10:10:35;;;;;;;47.10;24.30;;;;;;;9.38;97.33;99594.46;103774;1317;69047;-56
2023/12/26 10:16:58;;;;;;;1.70;1.10;;;;;;;9.64;96.68;99605.08;102558;1336;59387;-55
2023/12/26 10:19:45;;;;;;;1.50;0.90;;;;;;;9.96;96.62;99603.10;101703;1333;61434;-58
2023/12/26 10:22:32;;;;;;;2.00;1.50;;;;;;;10.33;95.69;99605.27;101363;1335;75120;-54
2023/12/26 10:25:18;;;;;;;38.20;4.80;;;;;;;10.49;95.11;99614.38;101528;1329;67630;-56
2023/12/26 10:28:05;;;;;;;3.00;1.30;;;;;;;10.29;93.04;99611.41;101505;1329;71542;-55
2023/12/26 10:30:52;;;;;;;370.90;99.10;;;;;;;10.03;92.93;99623.54;101557;1332;61217;-55
2023/12/26 10:33:38;;;;;;;2.90;1.70;;;;;;;9.84;92.78;99631.86;101810;1324;61222;-55
2023/12/26 10:36:25;;;;;;;17.90;1.80;;;;;;;9.77;92.76;99634.15;102208;1317;73280;-56
2023/12/26 10:39:17;;;;;;;1.70;1.00;;;;;;;9.90;92.70;99639.41;102964;1318;309487;-57
2023/12/26 10:42:08;;;;;;;2.60;1.20;;;;;;;10.06;93.04;99642.73;103756;1317;71735;-57
2023/12/26 10:45:10;;;;;;;;;;;;;;;;;;;;;
2023/12/26 10:51:27;;;;;;;15.90;4.00;;;;;;;9.72;89.16;99665.58;104649;1308;73443;-57
2023/12/26 10:54:49;;;;;;;1.50;0.60;;;;;;;9.60;89.42;99671.77;105507;1294;69295;-56
2023/12/26 10:57:58;;;;;;;1.50;0.40;;;;;;;9.48;89.63;99675.38;105720;1294;71285;-56
2023/12/26 11:01:14;;;;;;;112.20;38.20;;;;;;;9.41;88.85;99674.70;105379;1294;59517;-58
2023/12/26 11:04:01;;;;;;;3.00;0.70;;;;;;;9.36;88.35;99675.20;104083;1294;61179;-53
2023/12/26 11:06:48;;;;;;;;;;;;;;;9.43;88.83;99679.98;104478;1294;76056;-55
2023/12/26 11:09:34;;;;;;;32.90;5.20;;;;;;;9.39;87.51;99684.71;104456;1294;68775;-56
2023/12/26 11:12:21;;;;;;;;;;;;;;;9.33;87.91;99686.63;104368;1298;74065;-55
2023/12/26 11:15:07;;;;;;;1.10;0.40;;;;;;;9.31;88.90;99692.02;104376;1295;61148;-55
2023/12/26 11:18:09;;;;;;;1.10;0.40;;;;;;;9.24;88.44;99695.09;64983;1297;10002173;-57
2023/12/26 11:21:48;;;;;;;1.50;0.40;;;;;;;9.30;87.80;99697.35;105650;1294;82613;-59
2023/12/26 11:24:36;;;;;;;2.10;0.40;;;;;;;9.45;88.28;99704.85;105760;1294;67538;-56
2023/12/26 11:27:23;;;;;;;0.70;0.40;;;;;;;9.79;88.17;99704.29;105730;1294;71184;-57
2023/12/26 11:30:12;;;;;;;49.70;2.30;;;;;;;9.83;85.23;99706.60;102416;1286;5003792;-57
2023/12/26 11:33:32;;;;;;;;;;;;;;;;;;;;;
2023/12/26 11:36:36;;;;;;;1.80;0.50;;;;;;;9.87;85.56;99717.50;105933;1292;73402;-56
2023/12/26 11:39:35;;;;;;;1.30;0.60;;;;;;;10.55;87.38;99719.31;105935;1296;68655;-59
2023/12/26 11:42:32;;;;;;;;;;;;;;;;;;;;;
2023/12/26 11:45:38;;;;;;;3.00;0.60;;;;;;;11.85;82.15;99710.50;105816;1295;59503;-59
2023/12/26 11:49:14;;;;;;;;;;;;;;;;;;;;;
2023/12/26 11:56:18;;;;;;;1.60;0.60;;;;;;;12.83;77.58;99711.79;103778;1316;68800;-59
2023/12/26 11:59:19;;;;;;;2.10;0.70;;;;;;;12.74;74.85;99716.14;103678;1317;70270;-58
2023/12/26 12:02:06;;;;;;;353.30;118.60;;;;;;;12.27;75.09;99730.89;102766;1318;61442;-57
2023/12/26 12:04:52;;;;;;;;;;;;;;;11.65;75.64;99738.14;102560;1318;61231;-55
2023/12/26 12:07:38;;;;;;;;;;;;;;;11.27;75.10;99744.93;102495;1318;73623;-56
2023/12/26 12:10:24;;;;;;;2.30;1.00;;;;;;;10.93;75.52;99752.59;102432;1317;70106;-58
2023/12/26 12:13:16;;;;;;;44.20;2.30;;;;;;;10.69;75.15;99753.89;102539;1317;73636;-57
2023/12/26 12:16:22;;;;;;;2.90;0.80;;;;;;;10.48;75.28;99753.82;104053;1313;59055;-58
2023/12/26 12:19:29;;;;;;;;;;;;;;;;;;;;;
2023/12/26 12:22:33;;;;;;;1.60;0.80;;;;;;;10.11;75.69;99756.95;103933;1313;73462;-58
2023/12/26 12:25:20;;;;;;;1.60;0.60;;;;;;;9.96;77.02;99760.10;103401;1311;69173;-58
2023/12/26 12:28:09;;;;;;;;;;;;;;;9.81;75.53;99761.39;103679;1295;70915;-56
2023/12/26 12:31:13;;;;;;;2.60;1.10;;;;;;;9.68;75.76;99765.50;104540;1294;61386;-56
2023/12/26 12:34:12;;;;;;;2.60;0.70;;;;;;;9.59;76.14;99779.33;106328;1286;59241;-57
2023/12/26 12:36:58;;;;;;;132.90;66.50;;;;;;;9.54;75.85;99778.27;105251;1289;73249;-56
2023/12/26 12:39:45;;;;;;;2.50;0.80;;;;;;;9.48;75.62;99780.82;105346;1290;67296;-57
2023/12/26 12:42:36;;;;;;;2.50;1.00;;;;;;;9.43;76.46;99785.92;105240;1288;71305;-57
2023/12/26 12:45:22;;;;;;;2.20;0.70;;;;;;;9.37;75.97;99790.75;105238;1287;63146;-57
2023/12/26 12:48:11;;;;;;;3.70;0.80;;;;;;;9.30;75.77;99788.17;105379;1286;61636;-57
2023/12/26 12:50:57;;;;;;;5.80;2.40;;;;;;;9.24;76.39;99797.77;105286;1288;75039;-57
2023/12/26 12:53:44;;;;;;;5.90;1.90;;;;;;;9.19;76.52;99795.13;105268;1288;70052;-56
2023/12/26 12:56:30;;;;;;;5.90;1.90;;;;;;;9.13;76.59;99801.13;99053;1288;10002463;-55
2023/12/26 12:59:16;;;;;;;4.60;1.20;;;;;;;9.04;76.96;99805.11;105526;1288;59168;-54
2023/12/26 13:02:06;;;;;;;7.60;1.80;;;;;;;8.97;77.30;99815.93;105343;1289;73234;-55
2023/12/26 13:04:52;;;;;;;3.50;1.00;;;;;;;8.92;77.48;99813.27;105336;1287;67945;-56
2023/12/26 13:07:39;;;;;;;7.30;1.10;;;;;;;8.90;77.31;99814.54;105301;1288;71066;-54
2023/12/26 13:10:25;;;;;;;3.30;1.00;;;;;;;8.88;77.56;99812.67;105372;1288;64143;-55
2023/12/26 13:13:11;;;;;;;4.60;1.70;;;;;;;8.90;77.73;99814.54;105389;1286;63338;-55
2023/12/26 13:15:58;;;;;;;5.50;1.00;;;;;;;8.87;77.31;99823.71;105332;1288;73158;-55
2023/12/26 13:18:44;;;;;;;3.60;1.10;;;;;;;8.85;77.21;99831.14;105327;1284;68177;-51
2023/12/26 13:21:30;;;;;;;6.80;1.90;;;;;;;8.84;76.44;99837.85;105271;1286;71242;-54
2023/12/26 13:24:23;;;;;;;3.10;0.90;;;;;;;8.86;76.48;99842.45;105350;1285;63025;-55
2023/12/26 13:27:21;;;;;;;5.50;1.50;;;;;;;8.88;76.09;99841.91;105328;1289;61270;-56
2023/12/26 13:30:07;;;;;;;3.60;1.60;;;;;;;8.88;76.07;99847.59;105181;1286;73459;-56
2023/12/26 13:33:02;;;;;;;4.40;2.00;;;;;;;8.85;76.33;99849.53;105404;1287;67404;-57
2023/12/26 13:35:48;;;;;;;4.40;1.90;;;;;;;8.79;76.82;99853.12;105437;1288;73134;-54
2023/12/26 13:38:35;;;;;;;4.00;1.90;;;;;;;8.72;77.14;99860.14;105351;1286;61492;-52
2023/12/26 13:41:21;;;;;;;146.40;57.50;;;;;;;8.60;77.48;99863.11;105377;1285;61404;-57
2023/12/26 13:44:14;;;;;;;7.00;2.30;;;;;;;8.49;77.55;99865.75;105335;1286;75455;-55
2023/12/26 13:47:00;;;;;;;40.20;2.20;;;;;;;8.43;77.69;99865.35;105417;1286;67373;-57
2023/12/26 13:49:47;;;;;;;18.40;3.20;;;;;;;8.34;77.65;99871.01;105355;1287;71272;-55
2023/12/26 13:52:33;;;;;;;2.10;0.80;;;;;;;8.31;77.73;99869.70;105259;1288;62377;-57